NFTF/TBU METAR and TAF weather

Enter ICAO airport designator
Station Type Date Time Source
NFTF METAR 2022/06/30 01:00 UTC NOAA

NFTF 300100Z 35007KT 9999 FEW007 FEW015TCU BKN250 28/24 Q1016


Station Type Date Time Source
NFTF Decoded METAR 2022/06/30 01:00 UTC NOAA

Fua'Amotu, Tonga (NFTF) 21-14S 175-09W 41M
Jun 29, 2022 - 09:00 PM EDT / 2022.06.30 0100 UTC
Wind: from the N (350 degrees) at 8 MPH (7 KT):0
Visibility: greater than 7 mile(s):0
Sky conditions: mostly cloudy
Weather: Towering cumulus clouds observed
Temperature: 82 F (28 C)
Dew Point: 75 F (24 C)
Relative Humidity: 78%
Pressure (altimeter): 30.00 in. Hg (1016 hPa)
ob: NFTF 300100Z 35007KT 9999 FEW007 FEW015TCU BKN250 28/24 Q1016
cycle: 1

Station Type Date Time Source
NFTF TAF 2022/06/29 18:25 UTC NOAA

TAF NFTF 291721Z 2918/3018 05006KT 9999 FEW016 SCT100 PROB40
TEMPO 3000/3006 3000 +TSRA BNK014 FEW016CB

Example: see airport list